createdAt,value
2023-02-22T00:01:07.512Z,56.30
2023-02-22T00:03:35.170Z,56.48
2023-02-22T00:06:05.027Z,56.28
2023-02-22T00:08:35.609Z,56.57
2023-02-22T00:11:05.128Z,56.86
2023-02-22T00:13:32.103Z,57.00
2023-02-22T00:16:00.597Z,57.36
2023-02-22T00:18:28.902Z,58.01
2023-02-22T00:21:00.607Z,58.18
2023-02-22T00:23:30.113Z,58.63
2023-02-22T00:25:59.079Z,58.33
2023-02-22T00:28:26.615Z,58.30
2023-02-22T00:30:54.963Z,58.77
2023-02-22T00:33:22.779Z,58.80
2023-02-22T00:35:49.795Z,57.97
2023-02-22T00:38:19.198Z,58.94
2023-02-22T00:40:46.075Z,59.02
2023-02-22T00:43:13.062Z,58.22
2023-02-22T00:45:41.409Z,58.62
2023-02-22T00:48:09.394Z,58.26
2023-02-22T00:50:37.239Z,58.50
2023-02-22T00:53:06.038Z,58.87
2023-02-22T00:55:36.214Z,59.04
2023-02-22T00:58:04.965Z,58.89
2023-02-22T01:00:38.425Z,58.76
2023-02-22T01:03:06.961Z,59.12
2023-02-22T01:05:35.047Z,59.57
2023-02-22T01:08:02.970Z,59.84
2023-02-22T01:10:33.566Z,59.84
2023-02-22T01:13:01.805Z,59.36
2023-02-22T01:15:30.836Z,59.31
2023-02-22T01:17:59.718Z,59.45
2023-02-22T01:20:28.145Z,59.75
2023-02-22T01:22:57.756Z,60.14
2023-02-22T01:25:28.509Z,60.15
2023-02-22T01:27:56.634Z,59.86
2023-02-22T01:30:26.826Z,59.91
2023-02-22T01:32:54.614Z,59.92
2023-02-22T01:35:25.765Z,60.07
2023-02-22T01:37:52.687Z,60.13
2023-02-22T01:40:24.351Z,60.13
2023-02-22T01:42:53.744Z,60.37
2023-02-22T01:45:30.110Z,60.77
2023-02-22T01:48:00.476Z,60.58
2023-02-22T01:50:29.067Z,60.91
2023-02-22T01:52:56.346Z,60.90
2023-02-22T01:55:23.714Z,61.04
2023-02-22T01:57:50.737Z,61.28
2023-02-22T02:00:21.440Z,61.53
2023-02-22T02:02:53.248Z,61.59
2023-02-22T02:05:24.877Z,61.86
2023-02-22T02:07:53.059Z,61.95
2023-02-22T02:10:21.624Z,62.33
2023-02-22T02:12:51.054Z,62.52
2023-02-22T02:15:28.940Z,62.54
2023-02-22T02:18:06.959Z,62.34
2023-02-22T02:21:29.677Z,62.14
2023-02-22T02:24:06.314Z,61.92
2023-02-22T02:26:44.857Z,62.42
2023-02-22T02:29:35.802Z,62.07
2023-02-22T02:32:16.198Z,62.15
2023-02-22T02:35:38.276Z,62.14
2023-02-22T02:38:41.399Z,62.42
2023-02-22T02:41:29.767Z,62.71
2023-02-22T02:44:04.805Z,62.82
2023-02-22T02:46:35.366Z,62.96
2023-02-22T02:49:08.733Z,63.03
2023-02-22T02:51:40.360Z,63.33
2023-02-22T02:54:09.051Z,63.25
2023-02-22T02:56:35.947Z,63.41
2023-02-22T02:59:03.422Z,63.86
2023-02-22T03:01:51.909Z,63.78
2023-02-22T03:04:24.931Z,64.02
2023-02-22T03:07:16.642Z,64.04
2023-02-22T03:10:18.974Z,64.30
2023-02-22T03:13:11.830Z,64.50
2023-02-22T03:16:03.820Z,64.38
2023-02-22T03:18:40.349Z,64.48
2023-02-22T03:21:18.729Z,64.68
2023-02-22T03:24:09.920Z,64.63
2023-02-22T03:26:43.371Z,64.51
2023-02-22T03:29:13.366Z,64.56
2023-02-22T03:31:45.082Z,64.74
2023-02-22T03:34:17.003Z,64.84
2023-02-22T03:37:07.858Z,64.68
2023-02-22T03:39:37.993Z,64.64
2023-02-22T03:42:10.397Z,64.41
2023-02-22T03:44:40.294Z,64.51
2023-02-22T03:47:12.940Z,64.29
2023-02-22T03:49:55.861Z,64.29
2023-02-22T03:52:26.030Z,64.31
2023-02-22T03:54:53.843Z,64.59
2023-02-22T03:57:32.022Z,64.62
2023-02-22T04:00:08.085Z,64.47
2023-02-22T04:02:42.199Z,64.67
2023-02-22T04:05:14.278Z,64.86
2023-02-22T04:07:42.300Z,64.94
2023-02-22T04:10:12.017Z,64.84
2023-02-22T04:12:39.920Z,65.17
2023-02-22T04:15:09.337Z,65.17
2023-02-22T04:17:37.079Z,65.36
2023-02-22T04:20:07.302Z,65.40
2023-02-22T04:22:48.865Z,65.65
2023-02-22T04:25:16.116Z,65.70
2023-02-22T04:27:43.903Z,66.40
2023-02-22T04:32:57.659Z,66.13
2023-02-22T04:35:24.999Z,66.08
2023-02-22T04:37:52.551Z,65.71
2023-02-22T04:40:19.845Z,65.66
2023-02-22T04:43:05.537Z,65.80
2023-02-22T04:45:32.515Z,65.71
2023-02-22T04:48:00.116Z,65.94
2023-02-22T04:50:28.324Z,66.31
2023-02-22T04:52:56.450Z,66.48
2023-02-22T04:55:23.666Z,66.49
2023-02-22T04:57:50.913Z,66.72
2023-02-22T05:00:21.580Z,66.72
2023-02-22T05:02:49.868Z,67.08
2023-02-22T05:05:19.276Z,67.20
2023-02-22T05:07:46.320Z,66.98
2023-02-22T05:10:13.856Z,67.58
2023-02-22T05:12:40.716Z,67.58
2023-02-22T05:15:08.616Z,67.60
2023-02-22T05:17:36.640Z,67.88
2023-02-22T05:20:04.594Z,67.93
2023-02-22T05:22:32.251Z,67.95
2023-02-22T05:24:59.324Z,67.83
2023-02-22T05:27:26.186Z,67.93
2023-02-22T05:29:53.150Z,68.00
2023-02-22T05:32:20.062Z,67.82
2023-02-22T05:34:47.384Z,68.11
2023-02-22T05:37:14.633Z,68.05
2023-02-22T05:39:41.925Z,67.92
2023-02-22T05:42:08.811Z,68.06
2023-02-22T05:44:35.782Z,68.33
2023-02-22T05:47:02.639Z,68.21
2023-02-22T05:49:29.729Z,68.40
2023-02-22T05:51:59.664Z,67.97
2023-02-22T05:54:26.609Z,68.31
2023-02-22T05:56:53.508Z,68.00
2023-02-22T05:59:20.990Z,67.99
2023-02-22T06:01:48.037Z,68.29
2023-02-22T06:04:15.101Z,68.29
2023-02-22T06:06:42.034Z,67.87
2023-02-22T06:09:09.185Z,67.83
2023-02-22T06:11:37.303Z,67.51
2023-02-22T06:14:04.283Z,67.70
2023-02-22T06:16:31.943Z,67.42
2023-02-22T06:18:59.921Z,67.44
2023-02-22T06:21:27.708Z,67.00
2023-02-22T06:23:54.662Z,66.52
2023-02-22T06:26:23.248Z,66.69
2023-02-22T06:28:50.331Z,66.77
2023-02-22T06:31:17.574Z,65.94
2023-02-22T06:33:45.159Z,65.39
2023-02-22T06:36:12.165Z,65.17
2023-02-22T06:38:39.460Z,64.38
2023-02-22T06:41:06.441Z,63.20
2023-02-22T06:43:33.430Z,62.92
2023-02-22T06:46:00.398Z,62.88
2023-02-22T06:48:27.374Z,63.11
2023-02-22T06:50:54.170Z,62.53
2023-02-22T06:53:21.274Z,62.42
2023-02-22T06:55:48.265Z,62.05
2023-02-22T06:58:16.041Z,61.31
2023-02-22T07:00:42.934Z,61.47
2023-02-22T07:03:11.036Z,60.99
2023-02-22T07:05:38.435Z,60.46
2023-02-22T07:08:07.366Z,59.98
2023-02-22T07:10:36.274Z,59.83
2023-02-22T07:13:04.565Z,59.58
2023-02-22T07:15:33.270Z,59.15
2023-02-22T07:18:00.997Z,58.63
2023-02-22T07:20:30.273Z,58.52
2023-02-22T07:22:57.284Z,58.46
2023-02-22T07:25:24.800Z,57.98
2023-02-22T07:27:53.002Z,57.82
2023-02-22T07:30:26.151Z,57.47
2023-02-22T07:32:57.605Z,56.27
2023-02-22T07:35:33.087Z,56.77
2023-02-22T07:38:00.344Z,56.48
2023-02-22T07:40:28.154Z,55.50
2023-02-22T07:43:00.954Z,55.54
2023-02-22T07:45:30.324Z,55.77
2023-02-22T07:47:58.291Z,54.56
2023-02-22T07:50:27.241Z,55.03
2023-02-22T07:52:56.093Z,54.64
2023-02-22T07:55:26.766Z,54.34
2023-02-22T07:57:56.843Z,53.63
2023-02-22T08:00:32.974Z,52.97
2023-02-22T08:03:02.305Z,53.13
2023-02-22T08:05:31.037Z,53.42
2023-02-22T08:07:58.172Z,52.15
2023-02-22T08:10:26.782Z,51.55
2023-02-22T08:12:55.057Z,52.46
2023-02-22T08:15:28.895Z,51.71
2023-02-22T08:17:57.497Z,50.63
2023-02-22T08:20:25.503Z,50.93
2023-02-22T08:22:52.751Z,50.81
2023-02-22T08:25:21.974Z,49.82
2023-02-22T08:27:49.196Z,49.29
2023-02-22T08:30:20.049Z,49.67
2023-02-22T08:32:47.630Z,49.42
2023-02-22T08:35:16.849Z,49.57
2023-02-22T08:37:45.075Z,48.94
2023-02-22T08:40:14.833Z,48.43
2023-02-22T08:42:42.153Z,48.24
2023-02-22T08:45:09.921Z,48.57
2023-02-22T08:47:36.970Z,47.61
2023-02-22T08:50:05.074Z,48.06
2023-02-22T08:52:32.126Z,47.85
2023-02-22T08:54:59.048Z,47.48
2023-02-22T08:57:26.231Z,46.96
2023-02-22T08:59:53.556Z,47.19
2023-02-22T09:02:22.412Z,46.74
2023-02-22T09:04:49.590Z,45.84
2023-02-22T09:07:17.452Z,45.75
2023-02-22T09:09:44.990Z,46.09
2023-02-22T09:12:12.327Z,45.58
2023-02-22T09:14:39.473Z,44.86
2023-02-22T09:17:06.624Z,44.91
2023-02-22T09:19:33.629Z,44.87
2023-02-22T09:22:00.591Z,44.47
2023-02-22T09:24:28.124Z,43.90
2023-02-22T09:26:55.271Z,44.21
2023-02-22T09:29:24.502Z,44.05
2023-02-22T09:31:54.314Z,42.77
2023-02-22T09:34:28.597Z,43.00
2023-02-22T09:36:57.713Z,42.81
2023-02-22T09:39:25.220Z,42.58
2023-02-22T09:42:26.149Z,42.56
2023-02-22T09:44:56.042Z,42.25
2023-02-22T09:47:34.570Z,40.93
2023-02-22T09:50:15.670Z,41.51
2023-02-22T09:53:06.544Z,41.39
2023-02-22T09:55:45.482Z,41.03
2023-02-22T09:58:34.213Z,41.42
2023-02-22T10:01:09.545Z,41.76
2023-02-22T10:03:46.444Z,40.81
2023-02-22T10:06:17.121Z,40.30
2023-02-22T10:08:47.176Z,40.07
2023-02-22T10:11:23.266Z,39.57
2023-02-22T10:14:27.608Z,40.12
2023-02-22T10:16:57.484Z,40.05
2023-02-22T10:19:38.566Z,40.22
2023-02-22T10:22:23.864Z,40.31
2023-02-22T10:25:04.986Z,39.58
2023-02-22T10:27:37.431Z,39.45
2023-02-22T10:30:25.129Z,39.26
2023-02-22T10:33:05.449Z,39.23
2023-02-22T10:35:38.018Z,39.35
2023-02-22T10:38:20.183Z,39.58
2023-02-22T10:40:59.399Z,39.37
2023-02-22T10:43:26.898Z,39.40
2023-02-22T10:45:56.655Z,38.68
2023-02-22T10:48:26.405Z,38.98
2023-02-22T10:50:59.880Z,38.14
2023-02-22T10:53:27.843Z,38.35
2023-02-22T10:56:24.351Z,38.35
2023-02-22T10:59:07.469Z,37.89
2023-02-22T11:01:38.279Z,37.98
2023-02-22T11:04:25.460Z,38.48
2023-02-22T11:06:58.764Z,37.73
2023-02-22T11:09:25.790Z,38.13
2023-02-22T11:12:17.664Z,37.46
2023-02-22T11:14:44.647Z,36.95
2023-02-22T11:17:18.242Z,37.30
2023-02-22T11:19:50.309Z,37.60
2023-02-22T11:22:48.241Z,37.93
2023-02-22T11:25:22.555Z,37.72
2023-02-22T11:27:49.598Z,37.88
2023-02-22T11:30:25.237Z,36.92
2023-02-22T11:32:58.401Z,36.71
2023-02-22T11:35:28.083Z,36.46
2023-02-22T11:38:16.317Z,36.07
2023-02-22T11:40:45.111Z,36.33
2023-02-22T11:43:17.691Z,34.91
2023-02-22T11:46:08.502Z,35.56
2023-02-22T11:48:39.664Z,35.63
2023-02-22T11:51:14.587Z,34.50
2023-02-22T11:53:47.811Z,34.53
2023-02-22T11:56:38.114Z,34.41
2023-02-22T11:59:08.389Z,34.36
2023-02-22T12:02:00.194Z,33.96
2023-02-22T12:04:45.748Z,34.35
2023-02-22T12:07:18.891Z,33.52
2023-02-22T12:10:09.104Z,33.75
2023-02-22T12:12:59.751Z,33.61
2023-02-22T12:15:56.359Z,33.65
2023-02-22T12:18:37.096Z,33.41
2023-02-22T12:21:10.755Z,33.42
2023-02-22T12:23:50.962Z,33.48
2023-02-22T12:26:32.384Z,33.69
2023-02-22T12:29:12.519Z,33.45
2023-02-22T12:31:48.068Z,33.79
2023-02-22T12:34:48.900Z,33.23
2023-02-22T12:37:27.983Z,33.29
2023-02-22T12:40:23.732Z,32.85
2023-02-22T12:42:57.742Z,32.98
2023-02-22T12:45:45.267Z,33.05
2023-02-22T12:48:31.871Z,33.25
2023-02-22T12:51:04.302Z,32.70
2023-02-22T12:53:38.353Z,32.71
2023-02-22T12:56:37.524Z,33.22
2023-02-22T12:59:19.643Z,32.50
2023-02-22T13:01:53.777Z,32.87
2023-02-22T13:04:22.247Z,32.66
2023-02-22T13:06:56.080Z,32.03
2023-02-22T13:09:29.037Z,32.58
2023-02-22T13:12:34.543Z,32.60
2023-02-22T13:15:26.270Z,32.81
2023-02-22T13:18:25.626Z,33.26
2023-02-22T13:21:15.929Z,32.38
2023-02-22T13:24:06.008Z,31.96
2023-02-22T13:26:57.354Z,32.46
2023-02-22T13:29:38.665Z,32.42
2023-02-22T13:32:21.870Z,32.61
2023-02-22T13:35:01.205Z,32.60
2023-02-22T13:37:28.217Z,33.11
2023-02-22T13:40:23.245Z,33.71
2023-02-22T13:43:24.439Z,32.89
2023-02-22T13:46:30.625Z,33.46
2023-02-22T13:49:16.514Z,33.61
2023-02-22T13:51:49.560Z,33.54
2023-02-22T13:54:41.343Z,33.58
2023-02-22T13:57:22.199Z,33.80
2023-02-22T14:00:10.436Z,33.72
2023-02-22T14:03:03.305Z,33.78
2023-02-22T14:05:39.832Z,33.66
2023-02-22T14:08:31.738Z,33.48
2023-02-22T14:11:00.310Z,34.06
2023-02-22T14:13:30.322Z,33.93
2023-02-22T14:16:00.489Z,33.95
2023-02-22T14:18:41.192Z,34.09
2023-02-22T14:21:19.300Z,33.52
2023-02-22T14:24:05.516Z,33.81
2023-02-22T14:26:39.624Z,34.22
2023-02-22T14:29:09.632Z,34.23
2023-02-22T14:31:46.812Z,34.28
2023-02-22T14:34:17.379Z,34.15
2023-02-22T14:36:51.416Z,33.33
2023-02-22T14:39:34.712Z,33.14
2023-02-22T14:42:10.801Z,33.72
2023-02-22T14:44:55.530Z,34.12
2023-02-22T14:47:30.503Z,34.55
2023-02-22T14:50:06.747Z,34.25
2023-02-22T14:52:39.068Z,33.72
2023-02-22T14:55:16.777Z,33.03
2023-02-22T14:58:08.706Z,32.96
2023-02-22T15:00:38.792Z,33.18
2023-02-22T15:03:05.991Z,33.56
2023-02-22T15:05:40.636Z,33.63
2023-02-22T15:08:09.326Z,34.70
2023-02-22T15:10:36.396Z,35.07
2023-02-22T15:13:09.205Z,35.18
2023-02-22T15:15:47.531Z,35.60
2023-02-22T15:18:49.979Z,35.61
2023-02-22T15:21:20.996Z,36.55
2023-02-22T15:24:00.834Z,36.92
2023-02-22T15:26:31.380Z,36.95
2023-02-22T15:28:59.903Z,37.75
2023-02-22T15:31:36.250Z,37.97
2023-02-22T15:34:16.953Z,37.55
2023-02-22T15:36:47.232Z,38.09
2023-02-22T15:39:27.175Z,38.07
2023-02-22T15:42:19.609Z,38.60
2023-02-22T15:44:48.783Z,38.25
2023-02-22T15:47:19.993Z,39.08
2023-02-22T15:50:15.704Z,39.35
2023-02-22T15:53:23.865Z,39.21
2023-02-22T15:55:57.909Z,39.95
2023-02-22T15:58:28.940Z,40.08
2023-02-22T16:01:05.866Z,41.09
2023-02-22T16:03:44.999Z,40.69
2023-02-22T16:06:21.439Z,40.44
2023-02-22T16:08:55.168Z,41.42
2023-02-22T16:11:22.672Z,41.09
2023-02-22T16:13:54.465Z,41.24
2023-02-22T16:16:27.534Z,42.01
2023-02-22T16:19:31.422Z,41.98
2023-02-22T16:22:04.639Z,42.15
2023-02-22T16:24:33.973Z,42.45
2023-02-22T16:27:15.879Z,42.36
2023-02-22T16:29:44.224Z,42.85
2023-02-22T16:32:11.598Z,42.67
2023-02-22T16:34:38.596Z,43.35
2023-02-22T16:37:05.632Z,43.25
2023-02-22T16:39:35.699Z,42.88
2023-02-22T16:42:05.181Z,43.32
2023-02-22T16:44:32.247Z,43.33
2023-02-22T16:47:00.777Z,43.14
2023-02-22T16:49:27.895Z,43.88
2023-02-22T16:51:58.661Z,44.46
2023-02-22T16:54:36.650Z,44.90
2023-02-22T16:57:05.349Z,44.51
2023-02-22T16:59:38.709Z,45.44
2023-02-22T17:02:09.057Z,45.47
2023-02-22T17:04:36.323Z,45.85
2023-02-22T17:07:05.202Z,46.23
2023-02-22T17:09:33.063Z,46.61
2023-02-22T17:12:00.516Z,46.82
2023-02-22T17:14:35.439Z,46.75
2023-02-22T17:17:03.606Z,47.41
2023-02-22T17:19:30.610Z,47.64
2023-02-22T17:21:58.014Z,47.35
2023-02-22T17:24:29.226Z,48.24
2023-02-22T17:26:58.442Z,48.64
2023-02-22T17:29:27.887Z,48.35
2023-02-22T17:31:55.376Z,49.15
2023-02-22T17:34:22.502Z,49.23
2023-02-22T17:36:49.414Z,49.48
2023-02-22T17:39:16.560Z,49.99
2023-02-22T17:41:44.050Z,49.59
2023-02-22T17:44:11.112Z,49.63
2023-02-22T17:46:40.784Z,49.64
2023-02-22T17:49:08.283Z,50.02
2023-02-22T17:51:35.340Z,50.25
2023-02-22T17:54:02.153Z,50.24
2023-02-22T17:56:29.227Z,49.59
2023-02-22T17:58:56.421Z,50.17
2023-02-22T18:01:27.381Z,50.26
2023-02-22T18:03:57.328Z,50.74
2023-02-22T18:06:28.472Z,51.16
2023-02-22T18:08:58.910Z,51.65
2023-02-22T18:11:27.684Z,51.24
2023-02-22T18:13:58.249Z,50.71
2023-02-22T18:16:26.003Z,51.06
2023-02-22T18:18:55.092Z,51.29
2023-02-22T18:21:23.079Z,51.76
2023-02-22T18:23:50.012Z,52.04
2023-02-22T18:26:19.677Z,53.19
2023-02-22T18:28:50.012Z,53.59
2023-02-22T18:31:19.952Z,53.67
2023-02-22T18:33:51.158Z,53.65
2023-02-22T18:36:23.287Z,54.25
2023-02-22T18:38:52.679Z,54.27
2023-02-22T18:41:20.955Z,54.81
2023-02-22T18:43:48.045Z,55.17
2023-02-22T18:46:20.923Z,55.60
2023-02-22T18:48:49.252Z,56.05
2023-02-22T18:51:17.564Z,56.33
2023-02-22T18:53:47.491Z,56.45
2023-02-22T18:56:21.927Z,56.32
2023-02-22T18:58:54.367Z,56.77
2023-02-22T19:01:22.176Z,56.56
2023-02-22T19:03:50.159Z,57.25
2023-02-22T19:06:18.639Z,57.15
2023-02-22T19:08:47.127Z,57.30
2023-02-22T19:11:19.186Z,57.39
2023-02-22T19:13:52.158Z,57.75
2023-02-22T19:16:21.574Z,57.69
2023-02-22T19:18:49.844Z,58.46
2023-02-22T19:21:16.968Z,58.62
2023-02-22T19:23:48.085Z,58.75
2023-02-22T19:26:19.167Z,57.96
2023-02-22T19:28:47.169Z,58.30
2023-02-22T19:31:22.958Z,59.61
2023-02-22T19:33:53.134Z,59.96
2023-02-22T19:36:23.154Z,59.87
2023-02-22T19:38:51.029Z,59.61
2023-02-22T19:41:23.040Z,60.67
2023-02-22T19:43:52.947Z,60.66
2023-02-22T19:46:22.053Z,59.98
2023-02-22T19:48:49.949Z,59.60
2023-02-22T19:51:18.905Z,60.67
2023-02-22T19:53:47.214Z,60.57
2023-02-22T19:56:35.550Z,60.15
2023-02-22T19:59:09.438Z,60.09
2023-02-22T20:01:37.243Z,60.22
2023-02-22T20:04:09.571Z,60.83
2023-02-22T20:06:42.826Z,60.69
2023-02-22T20:09:17.995Z,61.42
2023-02-22T20:11:48.922Z,61.43
2023-02-22T20:14:19.680Z,61.61
2023-02-22T20:16:47.207Z,61.74
2023-02-22T20:19:14.118Z,62.12
2023-02-22T20:21:41.757Z,61.92
2023-02-22T20:24:12.105Z,61.76
2023-02-22T20:26:40.264Z,62.36
2023-02-22T20:29:09.243Z,62.02
2023-02-22T20:31:38.278Z,62.52
2023-02-22T20:34:11.883Z,63.08
2023-02-22T20:36:41.508Z,63.28
2023-02-22T20:39:13.733Z,63.29
2023-02-22T20:41:43.417Z,63.56
2023-02-22T20:44:13.752Z,62.12
2023-02-22T20:46:41.288Z,63.29
2023-02-22T20:49:11.244Z,64.16
2023-02-22T20:51:42.225Z,63.24
2023-02-22T20:54:12.265Z,63.49
2023-02-22T20:56:41.993Z,63.24
2023-02-22T20:59:11.979Z,63.10
2023-02-22T21:01:39.359Z,62.76
2023-02-22T21:04:07.689Z,62.78
2023-02-22T21:06:37.633Z,62.67
2023-02-22T21:09:07.475Z,62.90
2023-02-22T21:11:36.134Z,63.70
2023-02-22T21:14:03.642Z,63.82
2023-02-22T21:16:33.722Z,64.26
2023-02-22T21:19:03.188Z,63.99
2023-02-22T21:21:31.093Z,64.00
2023-02-22T21:24:02.288Z,64.50
2023-02-22T21:26:33.607Z,64.62
2023-02-22T21:29:04.913Z,64.49
2023-02-22T21:31:33.984Z,64.62
2023-02-22T21:34:01.937Z,65.59
2023-02-22T21:36:29.324Z,65.01
2023-02-22T21:38:58.874Z,64.78
2023-02-22T21:41:31.017Z,65.02
2023-02-22T21:43:59.538Z,64.94
2023-02-22T21:46:29.208Z,64.76
2023-02-22T21:48:58.730Z,64.71
2023-02-22T21:51:31.667Z,64.98
2023-02-22T21:54:06.181Z,65.38
2023-02-22T21:56:37.785Z,65.73
2023-02-22T21:59:19.056Z,65.79
2023-02-22T22:01:55.598Z,66.01
2023-02-22T22:04:27.529Z,66.28
2023-02-22T22:06:56.870Z,66.30
2023-02-22T22:09:24.966Z,66.69
2023-02-22T22:12:01.342Z,66.64
2023-02-22T22:14:28.504Z,66.68
2023-02-22T22:17:00.246Z,66.95
2023-02-22T22:19:34.250Z,67.33
2023-02-22T22:22:01.496Z,67.04
2023-02-22T22:24:32.182Z,67.53
2023-02-22T22:27:03.650Z,67.81
2023-02-22T22:29:34.331Z,68.24
2023-02-22T22:32:02.162Z,68.07
2023-02-22T22:34:34.380Z,67.97
2023-02-22T22:37:01.432Z,68.03
2023-02-22T22:39:28.587Z,68.09
2023-02-22T22:41:55.597Z,68.04
2023-02-22T22:44:23.125Z,68.35
2023-02-22T22:46:53.739Z,68.43
2023-02-22T22:49:23.304Z,68.26
2023-02-22T22:51:50.195Z,68.33
2023-02-22T22:54:17.128Z,68.62
2023-02-22T22:56:44.076Z,68.56
2023-02-22T22:59:13.147Z,68.74
2023-02-22T23:01:44.635Z,68.97
2023-02-22T23:04:16.858Z,68.94
2023-02-22T23:06:46.690Z,69.50
2023-02-22T23:09:15.368Z,69.53
2023-02-22T23:12:09.542Z,69.62
2023-02-22T23:14:39.793Z,69.75
2023-02-22T23:17:14.119Z,69.72
2023-02-22T23:19:42.791Z,70.23
2023-02-22T23:22:09.839Z,70.58
2023-02-22T23:24:37.407Z,70.77
2023-02-22T23:27:11.014Z,70.80
2023-02-22T23:29:40.688Z,70.82
2023-02-22T23:32:08.749Z,70.88
2023-02-22T23:34:37.169Z,71.27
2023-02-22T23:37:04.134Z,71.11
2023-02-22T23:39:30.992Z,71.31
2023-02-22T23:41:59.644Z,70.98
2023-02-22T23:44:27.813Z,71.24
2023-02-22T23:46:55.715Z,71.37
2023-02-22T23:49:27.902Z,71.59
2023-02-22T23:51:55.183Z,71.92
2023-02-22T23:54:24.502Z,72.10
2023-02-22T23:56:57.806Z,72.14
2023-02-22T23:59:27.091Z,71.93
